• Join FlightAware (Why Join?)
  • Login
  • US Flag 
12:42PM EDT


 

Airport Tracker/Info


-or-


 

Live Flight TrackerFlight Track Log ✈ AAL1459 ✈ 11-May-2013 ✈ KBOS - KORD

Flight Track Log - Related Links

Times and Time Zones

All times are in EDT time to prevent confusion due to time zone crossing. See the AAL1459 flight status page for this flight to view local times or setup timezone preferences in your user account.

Time Position Orientation Groundspeed Altitude Reporting Facility
EDT Latitude Longitude Course Direction KTS MPH feet Rate Location/Type
02:18PM 42.3500 -71.0167 300° West 150 173 600  Level KA90
02:18PM 42.3333 -71.0167 180° South 146 168 1,500 1,920 Climbing KA90
02:20PM 42.5229 -70.7896 324° Northwest  Level FlightAware Approximate
02:20PM 42.3150 -70.8986 102° East 252 290 4,400  Level Boston Center
02:21PM 42.5948 -70.8658 308° West  Level FlightAware Approximate
02:21PM 42.3403 -70.7772 74° East 274 315 7,400  Level Boston Center
02:22PM 42.6488 -70.9705 300° West  Level FlightAware Approximate
02:22PM 42.4019 -70.7278 31° Northeast 271 312 9,700  Level Boston Center
02:23PM 42.6953 -71.0820 300° West  Level FlightAware Approximate
02:23PM 42.5128 -70.7472 353° North 279 321 11,400  Level Boston Center
02:24PM 42.5769 -70.8528 310° West 286 329 14,300 2,640 Climbing Boston Center
02:25PM 42.6306 -70.9614 304° West 319 367 16,700 2,160 Climbing Boston Center
02:26PM 42.6711 -71.0508 302° West 368 423 18,700 2,340 Climbing Boston Center
02:27PM 42.7522 -71.2072 305° West 382 440 21,400 2,160 Climbing Boston Center
02:28PM 42.7936 -71.3761 289° West 388 447 23,500 1,680 Climbing Boston Center
02:29PM 42.8094 -71.5203 279° West 388 447 25,100 1,500 Climbing Boston Center
02:30PM 42.8167 -71.6589 274° West 395 455 26,600 1,440 Climbing Boston Center
02:31PM 42.8342 -71.8144 279° West 410 472 28,000 1,320 Climbing Boston Center
02:32PM 42.8497 -71.9756 278° West 425 489 29,300 1,440 Climbing Boston Center
02:33PM 42.8647 -72.1342 277° West 425 489 30,900 1,620 Climbing Boston Center
02:34PM 42.8839 -72.3097 279° West 425 489 32,600 1,500 Climbing Boston Center
02:35PM 42.8986 -72.4628 278° West 420 483 34,000 1,320 Climbing Boston Center
02:36PM 42.9108 -72.6214 276° West 420 483 35,300 1,200 Climbing Boston Center
02:37PM 42.9189 -72.7747 274° West 420 483 36,400 1,020 Climbing Boston Center
02:38PM 42.9308 -72.9250 276° West 415 478 37,400 780 Climbing Boston Center
02:39PM 42.9489 -73.0697 280° West 420 483 38,000 300 Climbing Boston Center
02:40PM 42.9583 -73.2231 275° West 420 483 38,000  Level Boston Center
02:41PM 42.9675 -73.3906 274° West 420 483 38,000 -60 Level Boston Center
02:42PM 42.9786 -73.5442 276° West 415 478 37,900 -60 Descending Boston Center
02:43PM 42.9917 -73.7003 277° West 415 478 37,900  Level Boston Center
02:44PM 43.0064 -73.8569 277° West 415 478 38,000  Climbing Boston Center
02:45PM 43.0169 -74.0133 275° West 415 478 38,000 -60 Level Boston Center
02:46PM 43.0292 -74.1697 276° West 415 478 37,900 -60 Descending Boston Center
02:47PM 43.0392 -74.3236 275° West 415 478 37,900  Level Boston Center
02:48PM 43.0511 -74.4772 276° West 415 478 37,900  Level Boston Center
02:49PM 43.0628 -74.6339 276° West 415 478 38,000  Climbing Boston Center
02:50PM 43.0744 -74.7881 276° West 415 478 38,000 -60 Level Boston Center
02:51PM 43.0839 -74.9361 275° West 403 464 37,900  Descending Boston Center
02:52PM 43.0928 -75.0928 274° West 408 470 38,000  Climbing Boston Center
02:53PM 43.1017 -75.2469 275° West 408 470 38,000  Level Boston Center
02:54PM 43.1106 -75.3839 275° West 408 470 38,000  Level Boston Center
02:55PM 43.1211 -75.5381 275° West 408 470 38,000  Level Boston Center
02:56PM 43.1314 -75.6894 275° West 408 470 38,000  Level Boston Center
02:57PM 43.1394 -75.8433 274° West 408 470 38,000  Level Boston Center
02:58PM 43.1494 -75.9950 275° West 408 470 38,000  Level Boston Center
02:59PM 43.1606 -76.2453 274° West 402 463 38,000  Level Cleveland Center
03:00PM 43.1619 -76.3989 271° West 402 463 38,000  Level Cleveland Center
03:01PM 43.1592 -76.5528 269° West 402 463 38,000  Level Cleveland Center
03:02PM 43.1600 -76.7036 270° West 402 463 38,000  Level Cleveland Center
03:03PM 43.1589 -76.8547 269° West 402 463 38,000  Level Cleveland Center
03:04PM 43.1592 -77.0025 270° West 402 463 38,000  Level Cleveland Center
03:05PM 43.1575 -77.1536 269° West 402 463 38,000  Level Cleveland Center
03:06PM 43.1556 -77.3017 269° West 402 463 38,000  Level Cleveland Center
03:07PM 43.1556 -77.4525 270° West 402 463 38,000  Level Cleveland Center
03:08PM 43.1533 -77.6008 269° West 402 463 38,000  Level Cleveland Center
03:09PM 43.1525 -77.7344 270° West 407 468 38,000  Level Cleveland Center
03:10PM 43.1497 -77.8797 269° West 402 463 38,000  Level Cleveland Center
03:11PM 43.1489 -78.0278 270° West 397 457 38,000  Level Cleveland Center
03:12PM 43.1458 -78.1789 268° West 397 457 38,000  Level Cleveland Center
03:13PM 43.1428 -78.3269 268° West 397 457 38,000  Level Cleveland Center
03:14PM 43.1414 -78.4806 269° West 402 463 38,000  Level Cleveland Center
03:15PM 43.1397 -78.6314 269° West 402 463 38,000  Level Cleveland Center
03:16PM 43.1381 -78.7853 269° West 402 463 38,000  Level Cleveland Center
03:17PM 43.1364 -78.9417 269° West 407 468 38,000  Level Cleveland Center
03:18PM 43.1333 -78.9667 261° West 400 460 38,000  Level Toronto Center
03:19PM 43.1167 -79.1333 262° West 400 460 38,000  Level Toronto Center
03:20PM 43.1167 -79.2667 270° West 400 460 38,000  Level Toronto Center
03:21PM 43.1167 -79.4333 270° West 390 449 38,000  Level Toronto Center
03:22PM 43.1167 -79.5667 270° West 390 449 38,000  Level Toronto Center
03:23PM 43.1167 -79.7167 270° West 390 449 38,000  Level Toronto Center
03:24PM 43.1000 -79.8833 262° West 400 460 38,000  Level Toronto Center
03:25PM 43.1000 -80.0167 270° West 400 460 38,000  Level Toronto Center
03:26PM 43.1000 -80.1833 270° West 400 460 38,000  Level Toronto Center
03:27PM 43.1000 -80.3333 270° West 400 460 38,000  Level Toronto Center
03:28PM 43.1000 -80.5000 270° West 410 472 38,000  Level Toronto Center
03:29PM 43.1000 -80.6333 270° West 410 472 38,000  Level Toronto Center
03:30PM 43.0833 -80.8000 262° West 400 460 38,000  Level Toronto Center
03:31PM 43.0667 -80.9500 261° West 400 460 38,000  Level Toronto Center
03:32PM 43.0667 -81.1167 270° West 400 460 38,000  Level Toronto Center
03:33PM 43.0667 -81.2500 270° West 400 460 38,000  Level Toronto Center
03:34PM 43.0667 -81.4167 270° West 400 460 38,000  Level Toronto Center
03:35PM 43.0500 -81.5500 260° West 400 460 38,000  Level Toronto Center
03:36PM 43.0500 -81.7167 270° West 390 449 38,000  Level Toronto Center
03:37PM 43.0500 -81.8500 270° West 390 449 38,000  Level Toronto Center
03:38PM 43.0333 -82.0000 261° West 390 449 38,000  Level Toronto Center
03:39PM 43.0333 -82.1500 270° West 390 449 38,000  Level Toronto Center
03:40PM 43.0333 -82.3000 270° West 390 449 38,000  Level Toronto Center
03:41PM 43.0167 -82.4333 260° West 390 449 38,000  Level Toronto Center
03:42PM 43.0167 -82.6000 270° West 390 449 38,000  Level Toronto Center
03:42PM 43.0206 -82.6761 274° West 388 447 38,000 -240 Level Cleveland Center
03:43PM 43.0136 -82.8236 266° West 388 447 37,700 -660 Descending Cleveland Center
03:44PM 43.0067 -82.9681 266° West 383 441 36,700 -960 Descending Cleveland Center
03:45PM 43.0017 -83.1069 267° West 377 434 35,800 -900 Descending Cleveland Center
03:46PM 42.9922 -83.2486 265° West 377 434 34,900 -960 Descending Cleveland Center
03:47PM 42.9847 -83.3872 266° West 377 434 33,900 -960 Descending Cleveland Center
03:48PM 42.9775 -83.5119 266° West 377 434 33,000 -960 Descending Cleveland Center
03:49PM 42.9717 -83.6506 267° West 372 428 32,000 -540 Descending Cleveland Center
03:50PM 42.9617 -83.7892 264° West 372 428 32,000  Level Cleveland Center
03:51PM 42.9472 -83.9303 262° West 372 428 32,000  Level Cleveland Center
03:52PM 42.9347 -84.0686 263° West 372 428 32,000  Level Cleveland Center
03:53PM 42.9200 -84.2067 262° West 372 428 32,000  Level Cleveland Center
03:55PM 42.8961 -84.4611 263° West 365 420 32,000  Level Chicago Center
03:56PM 42.8828 -84.5958 262° West 360 414 32,000  Level Chicago Center
03:57PM 42.8661 -84.7564 262° West 358 412 32,000  Level Chicago Center
03:58PM 42.8522 -84.8914 262° West 359 413 32,000  Level Chicago Center
03:59PM 42.8378 -85.0275 262° West 362 417 32,000  Level Chicago Center
04:00PM 42.8236 -85.1628 262° West 362 417 32,000 -720 Level Chicago Center
04:01PM 42.8081 -85.2989 261° West 361 415 30,600 -1,500 Descending Chicago Center
04:02PM 42.7928 -85.4386 262° West 372 428 29,000 -1,560 Descending Chicago Center
04:03PM 42.7731 -85.5753 259° West 368 423 27,400 -1,620 Descending Chicago Center
04:04PM 42.7486 -85.7111 256° West 368 423 25,800 -1,800 Descending Chicago Center
04:05PM 42.7197 -85.8697 256° West 360 414 23,800 -1,800 Descending Chicago Center
04:06PM 42.6961 -85.9983 256° West 351 404 22,200 -1,620 Descending Chicago Center
04:07PM 42.6725 -86.1242 256° West 344 396 20,600 -1,080 Descending Chicago Center
04:08PM 42.6506 -86.2469 256° West 335 386 20,000 -300 Descending Chicago Center
04:09PM 42.6272 -86.3661 255° West 327 376 20,000 -300 Level Chicago Center
04:10PM 42.6053 -86.4878 256° West 330 380 19,500 -900 Descending Chicago Center
04:11PM 42.5819 -86.6061 255° West 327 376 18,200 -1,620 Descending Chicago Center
04:12PM 42.5614 -86.7250 257° West 326 375 16,300 -1,800 Descending Chicago Center
04:14PM 42.5314 -86.8356 250° West 316 364 14,500 -2,040 Descending Chicago Center
04:15PM 42.4950 -86.9656 249° West 309 356 12,200 -2,100 Descending Chicago Center
04:16PM 42.4642 -87.0731 249° West 307 353 10,300 -1,320 Descending Chicago Center
04:17PM 42.4350 -87.1803 250° West 305 351 9,500 -660 Descending Chicago Center
04:18PM 42.3694 -87.2317 210° Southwest 279 321 9,000 -300 Descending Chicago Center
04:19PM 42.3008 -87.2850 210° Southwest 273 314 9,000  Level Chicago Center
04:20PM 42.2353 -87.3339 209° Southwest 271 312 9,000 -180 Level Chicago Center
04:21PM 42.1708 -87.3831 209° Southwest 268 308 8,700 -900 Descending Chicago Center
04:22PM 42.1081 -87.4317 210° Southwest 263 303 7,200 -1,320 Descending Chicago Center
04:23PM 42.0333 -87.4833 207° Southwest 253 291 6,000 -600 Descending Chicago TRACON
04:24PM 42.0000 -87.5500 236° Southwest 196 226 6,000 -600 Level Chicago TRACON
04:25PM 41.9833 -87.6167 251° West 180 207 4,800 -1,080 Descending Chicago TRACON
04:26PM 41.9833 -87.6667 270° West 164 189 3,900 -900 Descending Chicago TRACON